LZB978 LBWN-LBSF

Flight info

Callsign LZB978
Flight time 0h 36m
Altitude 26000
Route DICXA T343 UMPIT
Aircraft A320/M-SDE3FGHIRWY/LB1

Departure

Time 2026-05-04 21:53
Airport Varna Airport (LBWN)

Arrival

Time 2026-05-04 22:29
Airport Sofia Airport (LBSF)
Time Latitude Longitude Altitude Speed Heading
2026-05-04 21:40 43.23584 27.82839 222 ft 0 kts 62°
2026-05-04 21:47 43.23582 27.82834 222 ft 1 kts 62°
2026-05-04 21:47 43.23581 27.82829 222 ft 0 kts 62°
2026-05-04 21:48 43.23581 27.82860 222 ft 7 kts 92°
2026-05-04 21:48 43.23562 27.82893 224 ft 7 kts 176°
2026-05-04 21:48 43.23534 27.82855 222 ft 9 kts 253°
2026-05-04 21:48 43.23553 27.82716 222 ft 17 kts 281°
2026-05-04 21:49 43.23565 27.82614 222 ft 8 kts 276°
2026-05-04 21:49 43.23572 27.82528 222 ft 11 kts 277°
2026-05-04 21:49 43.23581 27.82427 222 ft 10 kts 276°
2026-05-04 21:49 43.23588 27.82344 222 ft 8 kts 275°
2026-05-04 21:50 43.23575 27.82280 222 ft 6 kts 228°
2026-05-04 21:50 43.23541 27.82260 222 ft 5 kts 194°
2026-05-04 21:50 43.23506 27.82246 222 ft 7 kts 205°
2026-05-04 21:50 43.23481 27.82160 222 ft 13 kts 272°
2026-05-04 21:51 43.23495 27.82006 222 ft 19 kts 277°
2026-05-04 21:51 43.23506 27.81801 222 ft 21 kts 276°
2026-05-04 21:51 43.23485 27.81664 223 ft 15 kts 226°
2026-05-04 21:51 43.23400 27.81638 222 ft 12 kts 157°
2026-05-04 21:52 43.23336 27.81697 223 ft 11 kts 140°
2026-05-04 21:52 43.23302 27.81741 223 ft 5 kts 134°
2026-05-04 21:52 43.23265 27.81811 223 ft 14 kts 112°
2026-05-04 21:52 43.23257 27.81862 223 ft 0 kts 92°
2026-05-04 21:53 43.23256 27.81878 223 ft 11 kts 96°
2026-05-04 21:53 43.23209 27.82420 223 ft 102 kts 97°
2026-05-04 21:53 43.23092 27.83737 237 ft 171 kts 96°
2026-05-04 21:53 43.22934 27.85401 951 ft 179 kts 98°
2026-05-04 21:54 43.22733 27.87163 1766 ft 195 kts 98°
2026-05-04 21:54 43.22394 27.89028 2596 ft 209 kts 117°
2026-05-04 21:54 43.21294 27.90308 3601 ft 220 kts 162°
2026-05-04 21:54 43.19752 27.90230 4462 ft 228 kts 206°
2026-05-04 21:55 43.18368 27.89036 4885 ft 249 kts 219°
2026-05-04 21:55 43.16872 27.87555 5122 ft 281 kts 218°
2026-05-04 21:55 43.15180 27.85959 5384 ft 311 kts 216°
2026-05-04 21:55 43.13240 27.84317 5518 ft 344 kts 213°
2026-05-04 21:56 43.11084 27.82531 5691 ft 370 kts 213°
2026-05-04 21:56 43.08808 27.80721 5946 ft 377 kts 213°
2026-05-04 21:56 43.06883 27.78640 6469 ft 330 kts 232°
2026-05-04 21:56 43.05837 27.76136 6947 ft 280 kts 261°
2026-05-04 21:57 43.05785 27.73581 7380 ft 274 kts 286°
2026-05-04 21:57 43.06247 27.70978 7876 ft 289 kts 293°
2026-05-04 21:57 43.06892 27.68304 8437 ft 303 kts 296°
2026-05-04 21:57 43.07665 27.65554 8999 ft 316 kts 298°
2026-05-04 21:58 43.08490 27.62703 9615 ft 329 kts 295°
2026-05-04 21:58 43.09059 27.59643 10501 ft 334 kts 285°
2026-05-04 21:58 43.09303 27.56467 11343 ft 337 kts 280°
2026-05-04 21:58 43.09432 27.53199 11831 ft 353 kts 277°
2026-05-04 21:59 43.09533 27.49770 12226 ft 367 kts 277°
2026-05-04 21:59 43.09673 27.46251 12876 ft 373 kts 278°
2026-05-04 21:59 43.09873 27.42697 13587 ft 376 kts 280°
2026-05-04 21:59 43.10138 27.39122 14245 ft 379 kts 283°
2026-05-04 22:00 43.10753 27.35638 14874 ft 376 kts 294°
2026-05-04 22:00 43.11781 27.32358 15517 ft 376 kts 299°
2026-05-04 22:00 43.12859 27.29076 16124 ft 380 kts 298°
2026-05-04 22:00 43.13926 27.25755 16736 ft 383 kts 297°
2026-05-04 22:01 43.14992 27.22389 17348 ft 387 kts 297°
2026-05-04 22:01 43.16061 27.18995 17953 ft 390 kts 297°
2026-05-04 22:01 43.17139 27.15565 18538 ft 394 kts 297°
2026-05-04 22:01 43.18227 27.12104 19072 ft 397 kts 297°
2026-05-04 22:02 43.19205 27.08552 19634 ft 402 kts 289°
2026-05-04 22:02 43.19713 27.04765 20188 ft 408 kts 278°
2026-05-04 22:02 43.19688 27.00856 20743 ft 414 kts 266°
2026-05-04 22:02 43.19201 26.96944 21267 ft 418 kts 262°
2026-05-04 22:03 43.18653 26.92964 21805 ft 420 kts 262°
2026-05-04 22:03 43.18124 26.89069 22297 ft 422 kts 262°
2026-05-04 22:03 43.17582 26.85057 22792 ft 424 kts 263°
2026-05-04 22:03 43.17043 26.81070 23276 ft 426 kts 262°
2026-05-04 22:04 43.16499 26.77066 23734 ft 428 kts 262°
2026-05-04 22:04 43.15951 26.73044 24118 ft 430 kts 262°
2026-05-04 22:04 43.15400 26.69011 24518 ft 432 kts 262°
2026-05-04 22:04 43.14842 26.64972 24905 ft 433 kts 262°
2026-05-04 22:05 43.14280 26.60911 25274 ft 434 kts 262°
2026-05-04 22:05 43.13718 26.56839 25627 ft 436 kts 262°
2026-05-04 22:05 43.13153 26.52750 25973 ft 437 kts 262°
2026-05-04 22:05 43.12584 26.48655 26072 ft 441 kts 262°
2026-05-04 22:06 43.12006 26.44520 26097 ft 443 kts 261°
2026-05-04 22:06 43.11425 26.40376 26094 ft 443 kts 261°
2026-05-04 22:06 43.10842 26.36236 26105 ft 443 kts 261°
2026-05-04 22:06 43.10250 26.32043 26097 ft 443 kts 261°
2026-05-04 22:07 43.09666 26.27899 26093 ft 443 kts 261°
2026-05-04 22:07 43.09081 26.23772 26093 ft 443 kts 261°
2026-05-04 22:07 43.08493 26.19630 26103 ft 442 kts 261°
2026-05-04 22:07 43.07905 26.15504 26092 ft 442 kts 261°
2026-05-04 22:08 43.07316 26.11370 26090 ft 442 kts 261°
2026-05-04 22:08 43.06729 26.07251 26083 ft 442 kts 261°
2026-05-04 22:08 43.06140 26.03128 26090 ft 442 kts 261°
2026-05-04 22:08 43.05548 25.99008 26087 ft 442 kts 261°
2026-05-04 22:09 43.04953 25.94886 26085 ft 441 kts 261°
2026-05-04 22:09 43.04356 25.90771 26078 ft 441 kts 261°
2026-05-04 22:09 43.03758 25.86666 26089 ft 441 kts 261°
2026-05-04 22:09 43.03159 25.82558 26083 ft 441 kts 261°
2026-05-04 22:10 43.02560 25.78450 26081 ft 441 kts 261°
2026-05-04 22:10 43.01961 25.74343 26078 ft 441 kts 261°
2026-05-04 22:10 43.01363 25.70238 26089 ft 441 kts 260°
2026-05-04 22:10 43.00763 25.66132 26084 ft 441 kts 260°
2026-05-04 22:11 43.00160 25.62026 26088 ft 441 kts 260°
2026-05-04 22:11 42.99554 25.57921 26087 ft 441 kts 260°
2026-05-04 22:11 42.98946 25.53812 26098 ft 441 kts 260°
2026-05-04 22:11 42.98335 25.49704 26096 ft 441 kts 260°
2026-05-04 22:12 42.97725 25.45604 26099 ft 441 kts 260°
2026-05-04 22:12 42.97112 25.41497 26101 ft 441 kts 260°
2026-05-04 22:12 42.96498 25.37390 26117 ft 441 kts 260°
2026-05-04 22:12 42.95881 25.33279 26123 ft 442 kts 260°
2026-05-04 22:13 42.95264 25.29175 26112 ft 442 kts 260°
2026-05-04 22:13 42.94645 25.25068 26111 ft 442 kts 260°
2026-05-04 22:13 42.94025 25.20949 26079 ft 445 kts 260°
2026-05-04 22:13 42.93399 25.16821 25830 ft 444 kts 260°
2026-05-04 22:14 42.92770 25.12705 25570 ft 442 kts 260°
2026-05-04 22:14 42.92143 25.08600 25338 ft 441 kts 260°
2026-05-04 22:14 42.91518 25.04508 25106 ft 439 kts 260°
2026-05-04 22:14 42.90900 25.00461 24524 ft 434 kts 260°
2026-05-04 22:15 42.90283 24.96440 23833 ft 432 kts 260°
2026-05-04 22:15 42.89670 24.92445 23110 ft 429 kts 260°
2026-05-04 22:15 42.89061 24.88492 22483 ft 424 kts 260°
2026-05-04 22:15 42.88456 24.84577 21864 ft 419 kts 260°
2026-05-04 22:16 42.87856 24.80706 21280 ft 415 kts 260°
2026-05-04 22:16 42.87260 24.76872 20708 ft 412 kts 260°
2026-05-04 22:16 42.86667 24.73074 20178 ft 408 kts 260°
2026-05-04 22:16 42.86076 24.69306 19631 ft 405 kts 260°
2026-05-04 22:17 42.85489 24.65569 19119 ft 402 kts 260°
2026-05-04 22:17 42.84906 24.61858 18606 ft 399 kts 260°
2026-05-04 22:17 42.84333 24.58181 18070 ft 395 kts 260°
2026-05-04 22:17 42.83770 24.54540 17553 ft 391 kts 260°
2026-05-04 22:18 42.83213 24.50939 17046 ft 386 kts 260°
2026-05-04 22:18 42.82663 24.47376 16553 ft 383 kts 260°
2026-05-04 22:18 42.82116 24.43832 16027 ft 381 kts 260°
2026-05-04 22:18 42.81570 24.40312 15502 ft 379 kts 260°
2026-05-04 22:19 42.81024 24.36805 14960 ft 378 kts 260°
2026-05-04 22:19 42.80477 24.33308 14407 ft 378 kts 260°
2026-05-04 22:19 42.79930 24.29807 13844 ft 378 kts 260°
2026-05-04 22:19 42.79380 24.26309 13214 ft 377 kts 260°
2026-05-04 22:20 42.79008 24.23956 12828 ft 376 kts 260°
2026-05-04 22:20 42.78441 24.20487 12245 ft 375 kts 257°
2026-05-04 22:20 42.77107 24.16162 11455 ft 377 kts 240°
2026-05-04 22:20 42.75562 24.13284 10831 ft 376 kts 232°
2026-05-04 22:21 42.73944 24.10561 10619 ft 362 kts 233°
2026-05-04 22:21 42.72402 24.07949 10493 ft 346 kts 233°
2026-05-04 22:21 42.71402 24.06252 10412 ft 336 kts 233°
2026-05-04 22:21 42.69966 24.03814 10288 ft 324 kts 233°
2026-05-04 22:22 42.68573 24.01445 10089 ft 315 kts 233°
2026-05-04 22:22 42.67331 23.99069 9777 ft 308 kts 245°
2026-05-04 22:22 42.66602 23.96426 9327 ft 304 kts 262°
2026-05-04 22:22 42.66417 23.93608 8908 ft 296 kts 277°
2026-05-04 22:23 42.66599 23.90849 8521 ft 291 kts 279°
2026-05-04 22:23 42.66780 23.88121 8119 ft 289 kts 278°
2026-05-04 22:23 42.66952 23.85409 7731 ft 287 kts 278°
2026-05-04 22:23 42.67118 23.82721 7366 ft 283 kts 278°
2026-05-04 22:24 42.67282 23.80065 6976 ft 281 kts 278°
2026-05-04 22:24 42.67433 23.77442 6615 ft 276 kts 278°
2026-05-04 22:24 42.67589 23.74905 6254 ft 262 kts 278°
2026-05-04 22:24 42.67741 23.72511 5909 ft 247 kts 277°
2026-05-04 22:25 42.67887 23.70211 5582 ft 243 kts 277°
2026-05-04 22:25 42.68031 23.67934 5258 ft 241 kts 277°
2026-05-04 22:25 42.68173 23.65669 4940 ft 237 kts 276°
2026-05-04 22:25 42.68308 23.63508 4628 ft 224 kts 276°
2026-05-04 22:26 42.68435 23.61465 4331 ft 210 kts 276°
2026-05-04 22:26 42.68554 23.59546 4065 ft 197 kts 276°
2026-05-04 22:26 42.68665 23.57754 3803 ft 184 kts 276°
2026-05-04 22:26 42.68767 23.56104 3569 ft 167 kts 275°
2026-05-04 22:27 42.68859 23.54618 3351 ft 149 kts 275°
2026-05-04 22:27 42.68943 23.53254 3143 ft 144 kts 274°
2026-05-04 22:27 42.69026 23.51901 2938 ft 144 kts 274°
2026-05-04 22:27 42.69112 23.50549 2734 ft 144 kts 275°
2026-05-04 22:28 42.69197 23.49199 2541 ft 143 kts 273°
2026-05-04 22:28 42.69270 23.47972 2370 ft 142 kts 274°
2026-05-04 22:28 42.69351 23.46638 2190 ft 142 kts 276°
2026-05-04 22:28 42.69437 23.45301 2001 ft 142 kts 274°
2026-05-04 22:29 42.69513 23.43967 1819 ft 142 kts 275°
2026-05-04 22:29 42.69602 23.42729 1750 ft 103 kts 275°
2026-05-04 22:29 42.69629 23.42045 1750 ft 57 kts 274°
2026-05-04 22:29 42.69599 23.41622 1749 ft 33 kts 250°
2026-05-04 22:30 42.69491 23.41491 1750 ft 17 kts 138°
2026-05-04 22:30 42.69394 23.41518 1743 ft 14 kts 177°
2026-05-04 22:30 42.69301 23.41516 1741 ft 13 kts 181°
2026-05-04 22:30 42.69219 23.41536 1747 ft 11 kts 163°
2026-05-04 22:31 42.69165 23.41535 1742 ft 6 kts 235°
2026-05-04 22:31 42.69151 23.41491 1750 ft 4 kts 251°
2026-05-04 22:31 42.69143 23.41457 1748 ft 3 kts 252°
2026-05-04 22:31 42.69139 23.41440 1746 ft 0 kts 252°